createdAt,value
2018-10-18T00:01:31.335Z,97530.87
2018-10-18T00:04:00.020Z,97526.53
2018-10-18T00:06:28.620Z,97526.09
2018-10-18T00:08:57.303Z,97521.57
2018-10-18T00:11:25.892Z,97522.11
2018-10-18T00:13:54.499Z,97518.28
2018-10-18T00:16:23.208Z,97516.53
2018-10-18T00:18:51.812Z,97517.90
2018-10-18T00:21:20.420Z,97516.23
2018-10-18T00:23:49.712Z,97511.83
2018-10-18T00:26:18.336Z,97516.86
2018-10-18T00:28:46.929Z,97521.79
2018-10-18T00:31:15.649Z,97519.55
2018-10-18T00:33:44.245Z,97515.28
2018-10-18T00:36:12.923Z,97517.98
2018-10-18T00:38:41.668Z,97518.97
2018-10-18T00:41:10.267Z,97513.88
2018-10-18T00:43:38.867Z,97518.73
2018-10-18T00:46:07.488Z,97518.59
2018-10-18T00:48:36.103Z,97517.08
2018-10-18T00:51:04.718Z,97517.23
2018-10-18T00:53:33.574Z,97513.20
2018-10-18T00:56:02.299Z,97510.27
2018-10-18T00:58:30.789Z,97507.48
2018-10-18T01:00:59.823Z,97507.95
2018-10-18T01:03:28.448Z,97505.84
2018-10-18T01:05:57.065Z,97505.11
2018-10-18T01:08:25.651Z,97507.56
2018-10-18T01:10:54.282Z,97509.22
2018-10-18T01:13:22.859Z,97503.83
2018-10-18T01:15:51.800Z,97508.30
2018-10-18T01:18:20.437Z,97505.45
2018-10-18T01:20:49.052Z,97511.14
2018-10-18T01:23:17.681Z,97512.36
2018-10-18T01:25:46.299Z,97512.11
2018-10-18T01:28:14.895Z,97509.13
2018-10-18T01:30:43.642Z,97511.38
2018-10-18T01:33:12.224Z,97503.34
2018-10-18T01:35:40.832Z,97504.85
2018-10-18T01:38:09.557Z,97498.39
2018-10-18T01:40:38.232Z,97503.05
2018-10-18T01:43:06.884Z,97507.16
2018-10-18T01:45:35.840Z,97502.90
2018-10-18T01:48:04.506Z,97504.70
2018-10-18T01:50:33.039Z,97497.20
2018-10-18T01:53:01.761Z,97493.97
2018-10-18T01:55:30.366Z,97494.50
2018-10-18T01:57:59.001Z,97495.09
2018-10-18T02:00:27.711Z,97490.89
2018-10-18T02:02:56.344Z,97489.45
2018-10-18T02:05:24.939Z,97497.33
2018-10-18T02:07:53.621Z,97497.47
2018-10-18T02:10:22.179Z,97499.77
2018-10-18T02:12:50.779Z,97495.64
2018-10-18T02:15:19.427Z,97494.19
2018-10-18T02:17:48.048Z,97502.62
2018-10-18T02:20:16.649Z,97500.87
2018-10-18T02:22:45.277Z,97503.38
2018-10-18T02:25:13.942Z,97504.78
2018-10-18T02:27:42.471Z,97500.52
2018-10-18T02:30:10.728Z,97505.28
2018-10-18T02:32:39.291Z,97502.29
2018-10-18T02:35:07.939Z,97499.97
2018-10-18T02:37:36.601Z,97508.87
2018-10-18T02:40:05.312Z,97505.20
2018-10-18T02:42:34.061Z,97500.94
2018-10-18T02:45:02.775Z,97500.41
2018-10-18T02:47:31.408Z,97500.55
2018-10-18T02:50:00.029Z,97492.53
2018-10-18T02:52:28.696Z,97498.59
2018-10-18T02:54:57.276Z,97498.28
2018-10-18T02:57:25.890Z,97503.38
2018-10-18T02:59:54.613Z,97496.62
2018-10-18T03:02:23.252Z,97495.62
2018-10-18T03:04:51.835Z,97498.81
2018-10-18T03:07:20.548Z,97495.73
2018-10-18T03:09:49.185Z,97499.64
2018-10-18T03:12:17.840Z,97502.98
2018-10-18T03:14:46.420Z,97500.52
2018-10-18T03:17:15.009Z,97504.39
2018-10-18T03:19:43.616Z,97502.89
2018-10-18T03:22:12.311Z,97504.88
2018-10-18T03:24:40.887Z,97509.22
2018-10-18T03:27:09.528Z,97504.71
2018-10-18T03:29:38.227Z,97509.41
2018-10-18T03:32:06.845Z,97505.16
2018-10-18T03:34:35.458Z,97508.14
2018-10-18T03:37:04.331Z,97510.63
2018-10-18T03:39:32.932Z,97508.00
2018-10-18T03:42:01.576Z,97505.46
2018-10-18T03:44:30.308Z,97506.64
2018-10-18T03:46:58.903Z,97505.42
2018-10-18T03:49:27.455Z,97506.91
2018-10-18T03:51:56.080Z,97506.52
2018-10-18T03:54:24.704Z,97512.44
2018-10-18T03:56:53.288Z,97509.06
2018-10-18T03:59:22.041Z,97510.33
2018-10-18T04:01:50.663Z,97510.38
2018-10-18T04:04:19.392Z,97512.56
2018-10-18T04:06:48.465Z,97510.55
2018-10-18T04:09:17.039Z,97511.95
2018-10-18T04:11:45.664Z,97514.02
2018-10-18T04:14:14.367Z,97510.29
2018-10-18T04:16:42.945Z,97523.14
2018-10-18T04:19:11.530Z,97515.33
2018-10-18T04:21:40.323Z,97511.07
2018-10-18T04:24:08.981Z,97512.00
2018-10-18T04:26:37.540Z,97514.31
2018-10-18T04:29:06.173Z,97515.33
2018-10-18T04:31:34.748Z,97511.95
2018-10-18T04:34:03.324Z,97524.66
2018-10-18T04:36:32.092Z,97523.78
2018-10-18T04:39:00.716Z,97526.28
2018-10-18T04:41:29.620Z,97521.63
2018-10-18T04:43:58.231Z,97529.75
2018-10-18T04:46:27.310Z,97525.05
2018-10-18T04:48:56.016Z,97524.66
2018-10-18T04:51:24.580Z,97527.55
2018-10-18T04:53:53.144Z,97528.95
2018-10-18T04:56:21.713Z,97533.56
2018-10-18T04:58:50.336Z,97523.78
2018-10-18T05:01:19.707Z,97530.14
2018-10-18T05:03:48.267Z,97529.00
2018-10-18T05:06:17.287Z,97535.18
2018-10-18T05:08:45.868Z,97535.54
2018-10-18T05:11:14.507Z,97541.45
2018-10-18T05:13:43.121Z,97544.56
2018-10-18T05:16:11.690Z,97537.90
2018-10-18T05:18:40.263Z,97538.42
2018-10-18T05:21:08.871Z,97538.10
2018-10-18T05:23:37.816Z,97541.00
2018-10-18T05:26:07.541Z,97539.73
2018-10-18T05:28:36.179Z,97538.55
2018-10-18T05:31:04.924Z,97538.16
2018-10-18T05:33:33.472Z,97542.36
2018-10-18T05:36:02.256Z,97542.48
2018-10-18T05:38:30.835Z,97546.78
2018-10-18T05:40:59.413Z,97549.41
2018-10-18T05:43:28.100Z,97560.41
2018-10-18T05:45:57.007Z,97556.20
2018-10-18T05:48:25.590Z,97553.66
2018-10-18T05:50:54.184Z,97563.44
2018-10-18T05:53:22.769Z,97563.83
2018-10-18T05:55:51.356Z,97567.13
2018-10-18T05:58:19.947Z,97569.62
2018-10-18T06:00:48.540Z,97561.86
2018-10-18T06:03:17.109Z,97570.68
2018-10-18T06:05:45.772Z,97574.50
2018-10-18T06:08:14.347Z,97582.12
2018-10-18T06:10:54.094Z,97579.02
2018-10-18T06:13:22.656Z,97581.52
2018-10-18T06:15:51.224Z,97581.39
2018-10-18T06:18:19.815Z,97583.84
2018-10-18T06:20:48.396Z,97586.83
2018-10-18T06:23:17.073Z,97583.41
2018-10-18T06:25:45.693Z,97589.64
2018-10-18T06:28:14.271Z,97587.98
2018-10-18T06:30:42.831Z,97595.69
2018-10-18T06:33:11.519Z,97596.00
2018-10-18T06:35:40.070Z,97593.77
2018-10-18T06:38:08.650Z,97590.70
2018-10-18T06:40:37.263Z,97599.04
2018-10-18T06:43:05.900Z,97598.91
2018-10-18T06:45:34.482Z,97599.18
2018-10-18T06:48:03.270Z,97601.95
2018-10-18T06:50:31.800Z,97599.93
2018-10-18T06:53:00.368Z,97603.05
2018-10-18T06:55:29.004Z,97602.92
2018-10-18T06:57:57.563Z,97601.52
2018-10-18T07:00:26.225Z,97604.38
2018-10-18T07:02:54.883Z,97601.83
2018-10-18T07:05:25.512Z,97608.58
2018-10-18T07:07:54.108Z,97608.81
2018-10-18T07:10:22.709Z,97612.37
2018-10-18T07:12:51.285Z,97617.51
2018-10-18T07:15:19.909Z,97615.61
2018-10-18T07:17:48.577Z,97612.80
2018-10-18T07:20:17.119Z,97617.94
2018-10-18T07:22:47.988Z,97619.19
2018-10-18T07:25:16.963Z,97624.80
2018-10-18T07:27:45.416Z,97627.38
2018-10-18T07:30:15.116Z,97632.55
2018-10-18T07:32:43.702Z,97625.91
2018-10-18T07:35:13.472Z,97636.96
2018-10-18T07:37:42.344Z,97631.53
2018-10-18T07:40:13.695Z,97630.73
2018-10-18T07:42:42.316Z,97638.17
2018-10-18T07:45:11.916Z,97645.58
2018-10-18T07:47:40.891Z,97639.56
2018-10-18T07:50:10.091Z,97643.39
2018-10-18T07:52:38.671Z,97645.98
2018-10-18T07:55:08.215Z,97648.86
2018-10-18T07:57:36.837Z,97655.91
2018-10-18T08:00:07.481Z,97655.61
2018-10-18T08:02:36.091Z,97660.32
2018-10-18T08:05:05.941Z,97659.63
2018-10-18T08:07:34.582Z,97655.05
2018-10-18T08:10:03.692Z,97656.23
2018-10-18T08:12:32.627Z,97658.80
2018-10-18T08:15:01.175Z,97656.28
2018-10-18T08:17:29.899Z,97652.80
2018-10-18T08:19:58.465Z,97659.84
2018-10-18T08:22:27.111Z,97657.70
2018-10-18T08:24:55.791Z,97655.14
2018-10-18T08:27:24.348Z,97658.44
2018-10-18T08:29:52.920Z,97654.44
2018-10-18T08:32:21.615Z,97649.94
2018-10-18T08:34:50.179Z,97655.73
2018-10-18T08:37:18.830Z,97651.93
2018-10-18T08:39:47.534Z,97655.70
2018-10-18T08:42:16.108Z,97658.30
2018-10-18T08:44:44.669Z,97653.73
2018-10-18T08:47:13.380Z,97648.81
2018-10-18T08:49:41.986Z,97642.44
2018-10-18T08:52:10.548Z,97646.30
2018-10-18T08:54:39.215Z,97648.67
2018-10-18T08:57:07.784Z,97651.42
2018-10-18T08:59:36.347Z,97660.59
2018-10-18T09:02:05.320Z,97661.85
2018-10-18T09:04:33.919Z,97655.96
2018-10-18T09:07:02.523Z,97656.13
2018-10-18T09:09:31.238Z,97658.23
2018-10-18T09:11:59.814Z,97661.80
2018-10-18T09:14:28.828Z,97662.54
2018-10-18T09:16:57.906Z,97659.57
2018-10-18T09:19:26.491Z,97662.41
2018-10-18T09:21:55.079Z,97661.83
2018-10-18T09:24:23.808Z,97663.44
2018-10-18T09:26:52.427Z,97656.80
2018-10-18T09:29:20.979Z,97653.75
2018-10-18T09:31:49.588Z,97650.73
2018-10-18T09:34:18.172Z,97648.58
2018-10-18T09:36:46.755Z,97658.20
2018-10-18T09:39:15.391Z,97649.22
2018-10-18T09:41:43.998Z,97646.42
2018-10-18T09:44:12.600Z,97646.45
2018-10-18T09:46:41.216Z,97651.17
2018-10-18T09:49:09.798Z,97643.61
2018-10-18T09:51:38.352Z,97647.84
2018-10-18T09:54:07.069Z,97648.16
2018-10-18T09:56:35.643Z,97651.23
2018-10-18T09:59:04.233Z,97648.98
2018-10-18T10:01:38.212Z,97650.44
2018-10-18T10:04:06.858Z,97652.81
2018-10-18T10:06:35.426Z,97654.83
2018-10-18T10:09:04.312Z,97650.35
2018-10-18T10:11:32.909Z,97653.87
2018-10-18T10:14:01.440Z,97654.48
2018-10-18T10:16:30.103Z,97656.14
2018-10-18T10:18:58.677Z,97654.22
2018-10-18T10:21:27.272Z,97647.77
2018-10-18T10:23:55.900Z,97637.45
2018-10-18T10:26:24.491Z,97643.67
2018-10-18T10:28:53.079Z,97643.58
2018-10-18T10:31:21.760Z,97639.38
2018-10-18T10:33:50.327Z,97645.09
2018-10-18T10:36:18.899Z,97644.40
2018-10-18T10:38:47.576Z,97646.72
2018-10-18T10:41:16.237Z,97644.63
2018-10-18T10:43:45.123Z,97640.48
2018-10-18T10:46:13.880Z,97646.74
2018-10-18T10:48:42.420Z,97644.27
2018-10-18T10:51:11.002Z,97640.17
2018-10-18T10:53:39.687Z,97638.06
2018-10-18T10:56:08.787Z,97639.45
2018-10-18T10:58:37.271Z,97642.64
2018-10-18T11:01:14.191Z,97636.41
2018-10-18T11:03:43.364Z,97631.97
2018-10-18T11:06:12.386Z,97624.63
2018-10-18T11:08:40.994Z,97620.75
2018-10-18T11:11:10.121Z,97621.41
2018-10-18T11:13:38.715Z,97619.95
2018-10-18T11:16:07.791Z,97613.20
2018-10-18T11:18:37.461Z,97609.62
2018-10-18T11:21:07.439Z,97607.05
2018-10-18T11:23:36.359Z,97610.17
2018-10-18T11:26:05.184Z,97607.52
2018-10-18T11:28:34.192Z,97601.51
2018-10-18T11:31:02.804Z,97596.92
2018-10-18T11:33:31.426Z,97597.77
2018-10-18T11:36:00.146Z,97601.69
2018-10-18T11:38:28.718Z,97602.00
2018-10-18T11:40:57.311Z,97605.61
2018-10-18T11:43:25.952Z,97604.86
2018-10-18T11:45:54.543Z,97598.11
2018-10-18T11:48:23.115Z,97597.14
2018-10-18T11:50:51.802Z,97596.23
2018-10-18T11:53:20.383Z,97592.00
2018-10-18T11:55:48.952Z,97595.89
2018-10-18T11:58:17.663Z,97584.91
2018-10-18T12:00:46.259Z,97584.42
2018-10-18T12:03:15.400Z,97581.16
2018-10-18T12:05:44.043Z,97579.99
2018-10-18T12:08:12.710Z,97580.34
2018-10-18T12:10:41.261Z,97575.95
2018-10-18T12:13:09.896Z,97578.34
2018-10-18T12:15:38.468Z,97577.23
2018-10-18T12:18:07.058Z,97572.14
2018-10-18T12:20:35.692Z,97566.30
2018-10-18T12:23:04.351Z,97566.36
2018-10-18T12:25:32.899Z,97567.92
2018-10-18T12:28:01.472Z,97571.02
2018-10-18T12:30:30.038Z,97564.80
2018-10-18T12:32:58.608Z,97561.54
2018-10-18T12:35:27.256Z,97571.61
2018-10-18T12:37:55.917Z,97567.57
2018-10-18T12:40:24.636Z,97569.91
2018-10-18T12:42:53.207Z,97569.91
2018-10-18T12:45:21.779Z,97570.73
2018-10-18T12:47:50.361Z,97569.66
2018-10-18T12:50:19.373Z,97571.16
2018-10-18T12:52:47.940Z,97568.01
2018-10-18T12:55:16.527Z,97568.61
2018-10-18T12:57:45.128Z,97562.77
2018-10-18T13:00:13.794Z,97564.95
2018-10-18T13:02:42.318Z,97559.92
2018-10-18T13:05:11.631Z,97558.56
2018-10-18T13:07:40.356Z,97563.86
2018-10-18T13:10:11.116Z,97561.19
2018-10-18T13:12:39.939Z,97565.02
2018-10-18T13:15:10.199Z,97558.94
2018-10-18T13:17:39.113Z,97561.20
2018-10-18T13:20:08.893Z,97557.76
2018-10-18T13:22:37.513Z,97554.23
2018-10-18T13:25:08.236Z,97551.71
2018-10-18T13:27:37.255Z,97551.71
2018-10-18T13:30:07.771Z,97555.80
2018-10-18T13:32:36.297Z,97553.83
2018-10-18T13:35:05.256Z,97549.62
2018-10-18T13:37:33.947Z,97553.97
2018-10-18T13:40:03.395Z,97557.13
2018-10-18T13:42:31.969Z,97559.95
2018-10-18T13:45:00.684Z,97552.20
2018-10-18T13:47:29.271Z,97556.89
2018-10-18T13:49:57.861Z,97547.99
2018-10-18T13:52:26.495Z,97557.72
2018-10-18T13:54:55.071Z,97556.52
2018-10-18T13:57:23.724Z,97549.05
2018-10-18T14:00:03.632Z,97556.30
2018-10-18T14:02:32.190Z,97554.36
2018-10-18T14:05:00.784Z,97553.61
2018-10-18T14:07:29.496Z,97554.23
2018-10-18T14:09:58.092Z,97543.80
2018-10-18T14:12:26.680Z,97546.11
2018-10-18T14:14:55.516Z,97545.41
2018-10-18T14:17:24.256Z,97545.65
2018-10-18T14:19:52.743Z,97545.41
2018-10-18T14:22:21.383Z,97545.53
2018-10-18T14:24:50.047Z,97548.61
2018-10-18T14:27:18.611Z,97544.28
2018-10-18T14:29:47.215Z,97547.41
2018-10-18T14:32:15.819Z,97540.03
2018-10-18T14:34:44.387Z,97548.95
2018-10-18T14:37:13.031Z,97541.59
2018-10-18T14:39:41.600Z,97539.69
2018-10-18T14:42:10.184Z,97538.08
2018-10-18T14:44:39.124Z,97544.63
2018-10-18T14:47:07.543Z,97546.37
2018-10-18T14:49:36.089Z,97548.38
2018-10-18T14:52:04.828Z,97546.97
2018-10-18T14:54:33.431Z,97547.17
2018-10-18T14:57:02.064Z,97544.98
2018-10-18T14:59:30.815Z,97547.34
2018-10-18T15:01:59.527Z,97548.03
2018-10-18T15:04:28.180Z,97547.59
2018-10-18T15:06:57.024Z,97550.73
2018-10-18T15:09:25.726Z,97548.50
2018-10-18T15:11:54.371Z,97553.07
2018-10-18T15:14:23.048Z,97545.81
2018-10-18T15:16:51.645Z,97547.45
2018-10-18T15:19:20.263Z,97546.41
2018-10-18T15:21:48.896Z,97542.08
2018-10-18T15:24:17.820Z,97551.21
2018-10-18T15:26:46.534Z,97543.94
2018-10-18T15:29:15.111Z,97546.05
2018-10-18T15:31:43.633Z,97543.38
2018-10-18T15:34:12.251Z,97543.94
2018-10-18T15:36:40.983Z,97540.91
2018-10-18T15:39:10.576Z,97536.81
2018-10-18T15:41:40.085Z,97538.92
2018-10-18T15:44:09.196Z,97538.43
2018-10-18T15:46:38.320Z,97543.45
2018-10-18T15:49:07.796Z,97541.67
2018-10-18T15:51:36.935Z,97545.07
2018-10-18T15:54:06.511Z,97540.73
2018-10-18T15:56:35.527Z,97550.45
2018-10-18T15:59:04.199Z,97556.42
2018-10-18T16:01:32.756Z,97554.17
2018-10-18T16:04:01.882Z,97556.96
2018-10-18T16:06:30.572Z,97555.68
2018-10-18T16:08:59.257Z,97558.11
2018-10-18T16:11:28.037Z,97560.06
2018-10-18T16:13:56.560Z,97562.39
2018-10-18T16:16:25.655Z,97561.02
2018-10-18T16:18:54.832Z,97563.08
2018-10-18T16:21:23.979Z,97561.23
2018-10-18T16:23:52.595Z,97567.75
2018-10-18T16:26:21.699Z,97575.09
2018-10-18T16:28:50.254Z,97574.72
2018-10-18T16:31:18.867Z,97575.77
2018-10-18T16:33:47.587Z,97579.80
2018-10-18T16:36:16.202Z,97583.56
2018-10-18T16:38:44.784Z,97588.34
2018-10-18T16:41:14.585Z,97590.98
2018-10-18T16:43:42.958Z,97599.87
2018-10-18T16:46:11.566Z,97601.00
2018-10-18T16:48:40.245Z,97608.91
2018-10-18T16:51:09.124Z,97609.86
2018-10-18T16:53:37.703Z,97612.27
2018-10-18T16:56:06.451Z,97617.63
2018-10-18T16:58:35.027Z,97619.50
2018-10-18T17:01:03.661Z,97629.75
2018-10-18T17:03:32.349Z,97622.13
2018-10-18T17:06:01.015Z,97626.41
2018-10-18T17:08:29.605Z,97625.80
2018-10-18T17:10:58.259Z,97635.38
2018-10-18T17:13:26.852Z,97633.67
2018-10-18T17:15:55.439Z,97632.39
2018-10-18T17:18:24.240Z,97643.50
2018-10-18T17:20:54.864Z,97644.63
2018-10-18T17:23:23.871Z,97644.38
2018-10-18T17:25:52.623Z,97649.77
2018-10-18T17:28:22.154Z,97650.11
2018-10-18T17:30:51.611Z,97651.59
2018-10-18T17:33:20.827Z,97652.00
2018-10-18T17:35:50.225Z,97654.58
2018-10-18T17:38:19.982Z,97650.67
2018-10-18T17:40:49.691Z,97654.64
2018-10-18T17:43:18.868Z,97655.22
2018-10-18T17:45:49.214Z,97659.48
2018-10-18T17:48:18.866Z,97658.79
2018-10-18T17:50:49.248Z,97659.94
2018-10-18T17:53:18.388Z,97664.82
2018-10-18T17:55:47.495Z,97662.17
2018-10-18T17:58:17.402Z,97659.00
2018-10-18T18:00:46.572Z,97661.41
2018-10-18T18:03:16.368Z,97664.55
2018-10-18T18:05:46.004Z,97662.89
2018-10-18T18:08:15.658Z,97663.28
2018-10-18T18:10:44.567Z,97672.47
2018-10-18T18:13:14.133Z,97671.95
2018-10-18T18:15:45.072Z,97675.18
2018-10-18T18:18:13.743Z,97673.66
2018-10-18T18:20:42.464Z,97679.36
2018-10-18T18:23:11.958Z,97675.27
2018-10-18T18:25:40.762Z,97672.25
2018-10-18T18:28:09.492Z,97684.89
2018-10-18T18:30:38.491Z,97674.72
2018-10-18T18:33:07.131Z,97678.05
2018-10-18T18:35:35.775Z,97684.28
2018-10-18T18:38:04.720Z,97690.06
2018-10-18T18:40:33.912Z,97686.25
2018-10-18T18:43:02.843Z,97692.41
2018-10-18T18:45:33.845Z,97692.48
2018-10-18T18:48:03.479Z,97692.41
2018-10-18T18:50:32.716Z,97692.89
2018-10-18T18:53:02.389Z,97691.80
2018-10-18T18:55:31.619Z,97694.81
2018-10-18T18:58:00.298Z,97696.40
2018-10-18T19:00:29.572Z,97698.31
2018-10-18T19:02:58.743Z,97696.77
2018-10-18T19:05:27.299Z,97705.17
2018-10-18T19:07:55.943Z,97696.49
2018-10-18T19:10:24.639Z,97706.03
2018-10-18T19:12:53.223Z,97698.22
2018-10-18T19:15:21.935Z,97704.09
2018-10-18T19:17:50.536Z,97707.02
2018-10-18T19:20:19.128Z,97709.56
2018-10-18T19:22:47.857Z,97704.24
2018-10-18T19:25:16.390Z,97706.61
2018-10-18T19:27:45.080Z,97705.34
2018-10-18T19:30:13.706Z,97708.91
2018-10-18T19:32:42.347Z,97709.89
2018-10-18T19:35:10.929Z,97719.41
2018-10-18T19:37:39.560Z,97717.48
2018-10-18T19:40:08.897Z,97722.50
2018-10-18T19:42:37.596Z,97726.80
2018-10-18T19:45:07.884Z,97728.28
2018-10-18T19:47:44.956Z,97735.86
2018-10-18T19:50:13.622Z,97734.66
2018-10-18T19:52:42.283Z,97730.92
2018-10-18T19:55:11.248Z,97732.38
2018-10-18T19:57:39.860Z,97733.20
2018-10-18T20:00:09.402Z,97733.30
2018-10-18T20:02:38.322Z,97735.48
2018-10-18T20:05:07.729Z,97741.06
2018-10-18T20:07:36.403Z,97747.12
2018-10-18T20:10:05.536Z,97741.61
2018-10-18T20:12:34.359Z,97741.17
2018-10-18T20:15:03.624Z,97736.22
2018-10-18T20:17:32.436Z,97736.39
2018-10-18T20:20:01.271Z,97741.69
2018-10-18T20:22:30.231Z,97743.97
2018-10-18T20:24:58.976Z,97747.19
2018-10-18T20:27:27.501Z,97748.89
2018-10-18T20:29:56.151Z,97744.48
2018-10-18T20:32:24.776Z,97741.93
2018-10-18T20:34:53.388Z,97739.88
2018-10-18T20:37:22.010Z,97744.23
2018-10-18T20:39:50.852Z,97747.58
2018-10-18T20:42:19.445Z,97751.00
2018-10-18T20:44:48.076Z,97748.22
2018-10-18T20:47:16.772Z,97749.67
2018-10-18T20:49:46.420Z,97752.11
2018-10-18T20:52:14.999Z,97760.05
2018-10-18T20:54:43.646Z,97764.88
2018-10-18T20:57:12.364Z,97761.00
2018-10-18T20:59:40.857Z,97762.53
2018-10-18T21:02:09.437Z,97762.44
2018-10-18T21:04:38.043Z,97767.81
2018-10-18T21:07:07.300Z,97763.31
2018-10-18T21:09:35.882Z,97763.38
2018-10-18T21:12:05.154Z,97765.09
2018-10-18T21:14:33.757Z,97768.42
2018-10-18T21:17:02.608Z,97768.87
2018-10-18T21:19:31.729Z,97770.82
2018-10-18T21:22:00.431Z,97776.61
2018-10-18T21:24:29.181Z,97777.12
2018-10-18T21:26:57.817Z,97774.44
2018-10-18T21:29:26.433Z,97772.33
2018-10-18T21:31:55.219Z,97768.94
2018-10-18T21:34:23.900Z,97774.27
2018-10-18T21:36:52.511Z,97775.42
2018-10-18T21:39:27.277Z,97774.86
2018-10-18T21:41:55.903Z,97773.06
2018-10-18T21:44:28.803Z,97777.06
2018-10-18T21:46:57.626Z,97776.39
2018-10-18T21:49:26.898Z,97770.38
2018-10-18T21:51:55.583Z,97763.77
2018-10-18T21:54:24.448Z,97766.25
2018-10-18T21:56:53.089Z,97771.81
2018-10-18T21:59:21.800Z,97772.36
2018-10-18T22:01:50.437Z,97765.45
2018-10-18T22:04:19.016Z,97767.34
2018-10-18T22:06:48.466Z,97760.52
2018-10-18T22:09:17.788Z,97764.87
2018-10-18T22:11:47.041Z,97765.50
2018-10-18T22:14:15.777Z,97758.73
2018-10-18T22:16:44.355Z,97757.53
2018-10-18T22:19:12.924Z,97757.38
2018-10-18T22:21:41.561Z,97763.47
2018-10-18T22:24:11.293Z,97750.91
2018-10-18T22:26:39.947Z,97754.66
2018-10-18T22:29:08.859Z,97759.47
2018-10-18T22:31:37.881Z,97753.34
2018-10-18T22:34:06.624Z,97751.73
2018-10-18T22:36:35.344Z,97747.00
2018-10-18T22:39:05.073Z,97754.83
2018-10-18T22:41:33.643Z,97752.52
2018-10-18T22:44:02.248Z,97752.27
2018-10-18T22:46:30.848Z,97749.18
2018-10-18T22:48:59.479Z,97744.61
2018-10-18T22:51:28.121Z,97743.58
2018-10-18T22:53:58.455Z,97744.63
2018-10-18T22:56:28.021Z,97747.39
2018-10-18T22:58:56.638Z,97743.96
2018-10-18T23:01:25.256Z,97750.73
2018-10-18T23:03:54.448Z,97745.14
2018-10-18T23:06:23.059Z,97746.81
2018-10-18T23:08:51.866Z,97747.11
2018-10-18T23:11:20.652Z,97748.77
2018-10-18T23:13:49.443Z,97752.13
2018-10-18T23:16:18.100Z,97748.48
2018-10-18T23:18:47.095Z,97756.04
2018-10-18T23:21:15.880Z,97752.13
2018-10-18T23:23:44.843Z,97754.97
2018-10-18T23:26:13.587Z,97755.74
2018-10-18T23:28:42.173Z,97764.14
2018-10-18T23:31:10.777Z,97758.80
2018-10-18T23:33:39.728Z,97761.97
2018-10-18T23:36:08.350Z,97759.31
2018-10-18T23:38:36.974Z,97761.77
2018-10-18T23:41:06.337Z,97762.97
2018-10-18T23:43:35.339Z,97762.53
2018-10-18T23:46:03.935Z,97756.53
2018-10-18T23:48:32.543Z,97755.25
2018-10-18T23:51:01.133Z,97750.75
2018-10-18T23:53:29.705Z,97762.09
2018-10-18T23:55:58.400Z,97754.10
2018-10-18T23:58:26.971Z,97763.05
